createdAt,value
2023-01-09T00:00:45.367Z,6.82
2023-01-09T00:03:11.877Z,7.07
2023-01-09T00:05:38.406Z,7.25
2023-01-09T00:08:05.158Z,7.03
2023-01-09T00:10:31.884Z,5.97
2023-01-09T00:12:58.369Z,7.07
2023-01-09T00:15:24.854Z,7.25
2023-01-09T00:17:51.441Z,7.18
2023-01-09T00:20:18.291Z,7.00
2023-01-09T00:22:44.765Z,7.35
2023-01-09T00:25:11.228Z,7.13
2023-01-09T00:27:37.639Z,7.10
2023-01-09T00:30:04.878Z,7.55
2023-01-09T00:32:34.088Z,6.90
2023-01-09T00:35:00.693Z,7.03
2023-01-09T00:37:27.044Z,7.25
2023-01-09T00:39:53.681Z,7.38
2023-01-09T00:42:24.107Z,7.25
2023-01-09T00:44:57.118Z,7.10
2023-01-09T00:47:32.091Z,7.00
2023-01-09T00:50:11.472Z,6.65
2023-01-09T00:52:39.776Z,7.70
2023-01-09T00:55:07.569Z,7.72
2023-01-09T00:57:34.250Z,7.07
2023-01-09T01:00:01.640Z,7.60
2023-01-09T01:02:28.200Z,7.60
2023-01-09T01:05:13.492Z,6.85
2023-01-09T01:07:40.622Z,7.78
2023-01-09T01:10:12.933Z,7.05
2023-01-09T01:12:40.276Z,7.03
2023-01-09T01:15:08.204Z,7.40
2023-01-09T01:17:39.837Z,7.10
2023-01-09T01:20:10.176Z,7.35
2023-01-09T01:22:36.651Z,7.85
2023-01-09T01:25:05.007Z,7.72
2023-01-09T01:27:31.411Z,7.20
2023-01-09T01:29:57.854Z,7.50
2023-01-09T01:32:24.145Z,7.75
2023-01-09T01:34:51.115Z,8.27
2023-01-09T01:37:17.648Z,7.65
2023-01-09T01:39:44.240Z,7.35
2023-01-09T01:42:13.752Z,7.53
2023-01-09T01:45:08.785Z,7.18
2023-01-09T01:47:39.686Z,7.32
2023-01-09T01:50:25.552Z,8.15
2023-01-09T01:53:14.698Z,7.60
2023-01-09T01:55:46.639Z,7.15
2023-01-09T01:58:15.310Z,7.38
2023-01-09T02:00:44.848Z,7.75
2023-01-09T02:03:15.007Z,7.32
2023-01-09T02:05:41.617Z,7.82
2023-01-09T02:08:08.709Z,8.15
2023-01-09T02:10:37.046Z,7.25
2023-01-09T02:13:04.007Z,8.65
2023-01-09T02:15:49.592Z,8.07
2023-01-09T02:18:39.263Z,8.23
2023-01-09T02:21:33.300Z,7.93
2023-01-09T02:24:35.865Z,8.60
2023-01-09T02:27:38.225Z,8.02
2023-01-09T02:30:31.251Z,8.27
2023-01-09T02:33:18.819Z,7.38
2023-01-09T02:36:04.366Z,7.72
2023-01-09T02:38:42.916Z,8.55
2023-01-09T02:41:34.947Z,8.60
2023-01-09T02:44:18.234Z,8.07
2023-01-09T02:46:45.038Z,8.30
2023-01-09T02:49:13.192Z,8.18
2023-01-09T02:51:53.572Z,8.68
2023-01-09T02:54:32.464Z,7.93
2023-01-09T02:57:17.870Z,8.55
2023-01-09T03:04:11.949Z,7.07
2023-01-09T03:07:07.927Z,8.10
2023-01-09T03:10:00.901Z,8.80
2023-01-09T03:12:49.949Z,7.95
2023-01-09T03:15:39.373Z,8.75
2023-01-09T03:18:27.606Z,8.45
2023-01-09T03:21:13.284Z,7.53
2023-01-09T03:24:00.822Z,8.55
2023-01-09T03:26:46.048Z,8.93
2023-01-09T03:32:16.340Z,7.55
2023-01-09T03:35:01.670Z,8.07
2023-01-09T03:37:46.613Z,8.40
2023-01-09T03:40:31.639Z,9.05
2023-01-09T03:43:16.737Z,9.45
2023-01-09T03:46:02.102Z,8.75
2023-01-09T03:48:47.363Z,9.52
2023-01-09T03:51:31.951Z,8.48
2023-01-09T03:54:17.126Z,9.10
2023-01-09T03:59:47.311Z,8.02
2023-01-09T04:02:31.966Z,8.63
2023-01-09T04:05:16.798Z,8.93
2023-01-09T04:08:01.505Z,8.93
2023-01-09T04:10:48.198Z,8.23
2023-01-09T04:13:32.824Z,8.60
2023-01-09T04:16:17.877Z,9.43
2023-01-09T04:19:02.863Z,9.52
2023-01-09T04:21:48.119Z,9.15
2023-01-09T04:24:32.875Z,8.70
2023-01-09T04:30:04.090Z,8.98
2023-01-09T04:32:49.226Z,10.50
2023-01-09T04:35:33.907Z,9.00
2023-01-09T04:41:04.084Z,9.32
2023-01-09T04:46:33.957Z,7.93
2023-01-09T04:49:19.651Z,8.88
2023-01-09T04:52:04.697Z,9.05
2023-01-09T04:57:35.381Z,7.85
2023-01-09T05:00:20.337Z,9.18
2023-01-09T05:03:05.022Z,10.13
2023-01-09T05:05:50.185Z,9.30
2023-01-09T05:08:34.841Z,10.73
2023-01-09T05:11:19.866Z,9.10
2023-01-09T05:14:04.507Z,10.20
2023-01-09T05:19:34.469Z,9.27
2023-01-09T05:22:19.779Z,8.30
2023-01-09T05:25:04.677Z,8.52
2023-01-09T05:27:49.811Z,9.65
2023-01-09T05:30:34.671Z,8.77
2023-01-09T05:33:19.818Z,9.38
2023-01-09T05:36:05.096Z,9.40
2023-01-09T05:38:49.773Z,9.02
2023-01-09T05:44:19.590Z,8.73
2023-01-09T05:49:49.229Z,8.35
2023-01-09T05:55:19.609Z,8.88
2023-01-09T05:58:04.334Z,9.25
2023-01-09T06:00:51.534Z,9.38
2023-01-09T06:03:36.224Z,8.88
2023-01-09T06:06:23.496Z,9.63
2023-01-09T06:09:08.154Z,9.70
2023-01-09T06:11:54.186Z,11.15
2023-01-09T06:14:39.207Z,10.45
2023-01-09T06:17:27.264Z,9.73
2023-01-09T06:20:12.423Z,11.20
2023-01-09T06:25:41.995Z,9.45
2023-01-09T06:28:27.092Z,9.45
2023-01-09T06:31:12.726Z,8.93
2023-01-09T06:33:58.454Z,9.95
2023-01-09T06:36:43.302Z,9.05
2023-01-09T06:42:13.033Z,8.02
2023-01-09T06:44:57.961Z,9.18
2023-01-09T06:50:27.594Z,9.18
2023-01-09T06:56:01.666Z,7.53
2023-01-09T06:58:46.507Z,9.40
2023-01-09T07:01:31.932Z,9.05
2023-01-09T07:04:17.318Z,9.25
2023-01-09T07:07:02.544Z,9.75
2023-01-09T07:09:47.706Z,9.95
2023-01-09T07:12:32.587Z,10.02
2023-01-09T07:15:17.562Z,9.88
2023-01-09T07:18:03.261Z,8.82
2023-01-09T07:20:48.679Z,9.60
2023-01-09T07:23:34.001Z,8.75
2023-01-09T07:26:19.192Z,8.48
2023-01-09T07:29:04.508Z,9.35
2023-01-09T07:31:49.515Z,10.25
2023-01-09T07:34:34.557Z,9.30
2023-01-09T07:37:19.177Z,8.52
2023-01-09T07:42:52.281Z,8.85
2023-01-09T07:45:37.329Z,10.30
2023-01-09T07:48:22.103Z,10.70
2023-01-09T07:51:07.122Z,10.00
2023-01-09T07:56:36.588Z,7.50
2023-01-09T07:59:21.673Z,8.60
2023-01-09T08:02:08.721Z,9.07
2023-01-09T08:04:53.408Z,8.70
2023-01-09T08:07:38.102Z,8.75
2023-01-09T08:10:22.991Z,9.63
2023-01-09T08:15:53.514Z,9.30
2023-01-09T08:18:38.636Z,8.65
2023-01-09T08:21:23.304Z,9.25
2023-01-09T08:24:09.213Z,8.73
2023-01-09T08:26:55.896Z,8.65
2023-01-09T08:29:40.771Z,8.20
2023-01-09T08:32:25.951Z,8.35
2023-01-09T08:35:10.959Z,9.63
2023-01-09T08:37:56.307Z,9.52
2023-01-09T08:43:44.839Z,8.88
2023-01-09T08:46:57.381Z,8.13
2023-01-09T08:49:42.214Z,9.55
2023-01-09T08:52:30.028Z,9.02
2023-01-09T08:55:15.003Z,8.93
2023-01-09T08:58:00.246Z,9.10
2023-01-09T09:03:29.453Z,8.70
2023-01-09T09:06:14.664Z,9.70
2023-01-09T09:09:03.390Z,10.00
2023-01-09T09:11:48.165Z,8.60
2023-01-09T09:17:40.022Z,8.30
2023-01-09T09:20:34.394Z,8.80
2023-01-09T09:23:19.340Z,9.90
2023-01-09T09:26:04.556Z,8.77
2023-01-09T09:28:49.341Z,9.73
2023-01-09T09:34:20.498Z,9.35
2023-01-09T09:39:49.965Z,8.27
2023-01-09T09:43:21.585Z,9.57
2023-01-09T09:46:27.870Z,9.48
2023-01-09T09:49:23.417Z,9.20
2023-01-09T09:52:20.213Z,8.98
2023-01-09T09:55:20.769Z,8.65
2023-01-09T09:58:25.497Z,10.65
2023-01-09T10:01:16.224Z,9.98
2023-01-09T10:04:06.257Z,10.23
2023-01-09T10:06:57.157Z,10.18
2023-01-09T10:09:54.042Z,9.75
2023-01-09T10:12:50.094Z,9.45
2023-01-09T10:15:46.806Z,9.52
2023-01-09T10:18:40.239Z,9.88
2023-01-09T10:21:35.545Z,8.90
2023-01-09T10:24:42.274Z,9.40
2023-01-09T10:27:48.295Z,11.23
2023-01-09T10:31:09.834Z,10.20
2023-01-09T10:34:55.147Z,10.25
2023-01-09T10:37:46.126Z,9.05
2023-01-09T10:40:37.483Z,9.52
2023-01-09T10:43:48.771Z,9.68
2023-01-09T10:46:49.217Z,9.65
2023-01-09T10:49:36.490Z,9.55
2023-01-09T10:52:29.425Z,9.18
2023-01-09T10:55:18.798Z,9.23
2023-01-09T10:58:18.344Z,8.93
2023-01-09T11:01:04.800Z,9.73
2023-01-09T11:03:49.362Z,9.25
2023-01-09T11:06:47.005Z,9.95
2023-01-09T11:10:11.498Z,9.98
2023-01-09T11:13:18.966Z,9.30
2023-01-09T11:16:10.384Z,9.55
2023-01-09T11:18:59.216Z,9.88
2023-01-09T11:21:44.327Z,9.88
2023-01-09T11:24:30.783Z,10.48
2023-01-09T11:27:24.205Z,9.20
2023-01-09T11:30:25.573Z,9.95
2023-01-09T11:33:33.820Z,9.93
2023-01-09T11:36:26.499Z,11.30
2023-01-09T11:39:25.087Z,10.85
2023-01-09T11:42:44.763Z,9.30
2023-01-09T11:45:33.361Z,9.52
2023-01-09T11:48:54.052Z,9.65
2023-01-09T11:51:38.844Z,10.65
2023-01-09T11:54:34.695Z,9.82
2023-01-09T11:57:22.495Z,10.73
2023-01-09T12:00:30.303Z,10.07
2023-01-09T12:03:30.255Z,11.63
2023-01-09T12:06:38.008Z,9.95
2023-01-09T12:09:54.672Z,10.60
2023-01-09T12:13:14.416Z,10.13
2023-01-09T12:16:08.152Z,10.73
2023-01-09T12:19:06.938Z,12.05
2023-01-09T12:22:01.875Z,9.90
2023-01-09T12:25:05.515Z,10.68
2023-01-09T12:28:27.401Z,10.38
2023-01-09T12:31:30.838Z,10.02
2023-01-09T12:34:18.772Z,9.40
2023-01-09T12:37:22.660Z,10.27
2023-01-09T12:40:16.913Z,11.00
2023-01-09T12:43:28.881Z,10.02
2023-01-09T12:46:22.444Z,10.15
2023-01-09T12:49:27.345Z,12.38
2023-01-09T12:52:22.519Z,12.23
2023-01-09T12:55:13.806Z,11.50
2023-01-09T12:58:01.107Z,11.60
2023-01-09T13:00:53.362Z,10.65
2023-01-09T13:03:50.641Z,11.10
2023-01-09T13:06:39.760Z,11.82
2023-01-09T13:09:31.545Z,13.50
2023-01-09T13:12:22.423Z,13.05
2023-01-09T13:15:22.041Z,11.82
2023-01-09T13:18:25.982Z,11.80
2023-01-09T13:24:20.231Z,10.10
2023-01-09T13:27:16.182Z,10.75
2023-01-09T13:30:14.410Z,10.90
2023-01-09T13:33:17.825Z,10.52
2023-01-09T13:36:05.100Z,10.57
2023-01-09T13:38:50.642Z,10.80
2023-01-09T13:42:06.108Z,9.57
2023-01-09T13:44:55.921Z,10.57
2023-01-09T13:47:44.359Z,10.90
2023-01-09T13:50:29.087Z,11.32
2023-01-09T13:56:02.674Z,11.00
2023-01-09T13:58:53.815Z,11.95
2023-01-09T14:01:41.073Z,13.52
2023-01-09T14:04:40.895Z,12.23
2023-01-09T14:07:28.098Z,11.57
2023-01-09T14:10:26.956Z,13.05
2023-01-09T14:13:19.995Z,13.68
2023-01-09T14:16:13.675Z,13.07
2023-01-09T14:19:02.277Z,11.63
2023-01-09T14:21:56.767Z,12.82
2023-01-09T14:24:46.033Z,12.20
2023-01-09T14:27:55.474Z,11.68
2023-01-09T14:30:52.190Z,12.52
2023-01-09T14:33:37.683Z,11.98
2023-01-09T14:36:26.593Z,12.85
2023-01-09T14:39:13.313Z,13.45
2023-01-09T14:42:05.694Z,14.15
2023-01-09T14:45:05.952Z,13.50
2023-01-09T14:47:54.144Z,14.05
2023-01-09T14:50:50.013Z,16.23
2023-01-09T14:53:38.705Z,13.13
2023-01-09T14:56:29.904Z,13.30
2023-01-09T14:59:15.795Z,15.35
2023-01-09T15:02:01.274Z,13.98
2023-01-09T15:04:45.957Z,13.88
2023-01-09T15:07:39.779Z,13.68
2023-01-09T15:10:30.010Z,14.43
2023-01-09T15:13:28.708Z,13.82
2023-01-09T15:16:19.925Z,13.10
2023-01-09T15:19:08.306Z,12.77
2023-01-09T15:21:58.645Z,12.57
2023-01-09T15:24:43.685Z,11.13
2023-01-09T15:30:21.947Z,9.82
2023-01-09T15:33:15.891Z,11.00
2023-01-09T15:36:07.062Z,11.77
2023-01-09T15:38:52.918Z,10.93
2023-01-09T15:41:56.244Z,10.02
2023-01-09T15:44:44.359Z,11.30
2023-01-09T15:47:32.106Z,11.10
2023-01-09T15:50:27.415Z,11.43
2023-01-09T15:53:23.654Z,11.43
2023-01-09T15:56:11.521Z,9.95
2023-01-09T15:58:58.148Z,10.23
2023-01-09T16:01:44.289Z,10.55
2023-01-09T16:04:29.320Z,10.18
2023-01-09T16:07:16.232Z,9.77
2023-01-09T16:10:01.338Z,9.77
2023-01-09T16:12:47.532Z,10.27
2023-01-09T16:15:34.586Z,9.45
2023-01-09T16:18:22.758Z,9.88
2023-01-09T16:21:31.468Z,10.05
2023-01-09T16:24:16.141Z,10.40
2023-01-09T16:30:05.388Z,9.32
2023-01-09T16:32:53.405Z,9.07
2023-01-09T16:35:38.352Z,9.57
2023-01-09T16:41:34.364Z,10.02
2023-01-09T16:44:19.640Z,8.65
2023-01-09T16:47:05.022Z,10.00
2023-01-09T16:49:49.953Z,11.13
2023-01-09T16:52:34.595Z,10.32
2023-01-09T16:55:19.881Z,10.10
2023-01-09T16:58:04.580Z,9.23
2023-01-09T17:00:50.058Z,10.50
2023-01-09T17:03:35.427Z,8.82
2023-01-09T17:09:13.603Z,9.32
2023-01-09T17:11:58.745Z,9.15
2023-01-09T17:14:43.730Z,9.35
2023-01-09T17:17:28.844Z,9.38
2023-01-09T17:20:17.750Z,8.63
2023-01-09T17:23:02.487Z,9.75
2023-01-09T17:26:09.137Z,8.90
2023-01-09T17:28:54.249Z,8.65
2023-01-09T17:31:39.259Z,8.07
2023-01-09T17:34:24.322Z,8.82
2023-01-09T17:37:19.168Z,8.38
2023-01-09T17:40:25.662Z,8.63
2023-01-09T17:43:10.699Z,8.50
2023-01-09T17:45:55.912Z,8.35
2023-01-09T17:48:40.679Z,8.07
2023-01-09T17:51:26.342Z,7.97
2023-01-09T17:54:11.640Z,8.23
2023-01-09T17:57:03.769Z,7.65
2023-01-09T17:59:48.862Z,8.00
2023-01-09T18:02:33.954Z,9.38
2023-01-09T18:05:19.669Z,9.35
2023-01-09T18:08:08.494Z,9.52
2023-01-09T18:10:54.066Z,9.45
2023-01-09T18:13:39.795Z,8.88
2023-01-09T18:16:26.936Z,12.50
2023-01-09T18:19:12.192Z,11.05
2023-01-09T18:21:58.798Z,10.77
2023-01-09T18:24:43.768Z,10.63
2023-01-09T18:27:28.823Z,9.77
2023-01-09T18:30:13.741Z,9.38
2023-01-09T18:32:58.510Z,9.63
2023-01-09T18:35:44.613Z,10.32
2023-01-09T18:38:30.269Z,10.85
2023-01-09T18:41:15.094Z,10.07
2023-01-09T18:44:01.240Z,9.30
2023-01-09T18:46:46.513Z,10.30
2023-01-09T18:49:31.667Z,10.55
2023-01-09T18:52:16.638Z,10.27
2023-01-09T18:55:01.401Z,10.10
2023-01-09T19:00:31.283Z,10.10
2023-01-09T19:03:16.377Z,10.02
2023-01-09T19:06:02.648Z,10.18
2023-01-09T19:08:48.141Z,11.82
2023-01-09T19:14:17.232Z,11.57
2023-01-09T19:19:49.503Z,13.15
2023-01-09T19:22:34.313Z,13.13
2023-01-09T19:25:19.163Z,10.82
2023-01-09T19:28:04.160Z,11.75
2023-01-09T19:30:56.435Z,12.65
2023-01-09T19:33:41.366Z,11.32
2023-01-09T19:36:27.067Z,13.07
2023-01-09T19:39:12.133Z,11.68
2023-01-09T19:41:59.180Z,11.85
2023-01-09T19:47:36.968Z,14.00
2023-01-09T19:50:22.241Z,11.57
2023-01-09T19:53:07.238Z,13.18
2023-01-09T19:58:37.359Z,11.73
2023-01-09T20:01:24.996Z,11.65
2023-01-09T20:04:15.178Z,13.38
2023-01-09T20:06:59.914Z,13.40
2023-01-09T20:09:45.127Z,12.10
2023-01-09T20:12:31.372Z,12.13
2023-01-09T20:15:16.844Z,11.65
2023-01-09T20:20:49.563Z,11.25
2023-01-09T20:23:35.497Z,12.27
2023-01-09T20:26:22.216Z,11.70
2023-01-09T20:29:09.989Z,11.70
2023-01-09T20:31:55.423Z,10.65
2023-01-09T20:34:42.127Z,11.10
2023-01-09T20:37:27.099Z,11.43
2023-01-09T20:40:11.785Z,11.00
2023-01-09T20:42:57.809Z,11.60
2023-01-09T20:45:42.827Z,11.40
2023-01-09T20:48:28.564Z,11.82
2023-01-09T20:51:13.785Z,11.18
2023-01-09T20:53:58.709Z,11.70
2023-01-09T20:56:44.049Z,11.75
2023-01-09T20:59:28.827Z,11.43
2023-01-09T21:02:14.264Z,10.85
2023-01-09T21:04:59.008Z,12.00
2023-01-09T21:10:28.408Z,9.85
2023-01-09T21:16:03.880Z,9.60
2023-01-09T21:18:50.082Z,10.93
2023-01-09T21:21:35.013Z,11.43
2023-01-09T21:27:04.222Z,10.95
2023-01-09T21:29:53.656Z,11.43
2023-01-09T21:32:38.603Z,10.57
2023-01-09T21:38:09.137Z,11.02
2023-01-09T21:40:54.430Z,9.65
2023-01-09T21:46:51.338Z,9.85
2023-01-09T21:49:40.067Z,10.93
2023-01-09T21:52:25.076Z,10.90
2023-01-09T21:55:09.754Z,11.25
2023-01-09T21:57:55.692Z,9.45
2023-01-09T22:01:05.760Z,10.70
2023-01-09T22:03:56.231Z,10.05
2023-01-09T22:06:43.958Z,10.15
2023-01-09T22:09:28.722Z,10.00
2023-01-09T22:12:13.761Z,10.45
2023-01-09T22:14:58.689Z,9.32
2023-01-09T22:20:28.206Z,8.75
2023-01-09T22:23:13.799Z,9.52
2023-01-09T22:26:00.037Z,9.82
2023-01-09T22:28:45.430Z,9.00
2023-01-09T22:31:32.140Z,9.07
2023-01-09T22:34:17.831Z,9.00
2023-01-09T22:37:02.963Z,8.60
2023-01-09T22:39:47.912Z,9.63
2023-01-09T22:45:17.754Z,8.05
2023-01-09T22:48:02.700Z,7.72
2023-01-09T22:50:47.386Z,9.18
2023-01-09T22:53:33.198Z,8.70
2023-01-09T22:56:20.163Z,7.45
2023-01-09T22:59:07.995Z,7.18
2023-01-09T23:01:53.543Z,9.02
2023-01-09T23:04:38.751Z,7.95
2023-01-09T23:07:24.268Z,8.20
2023-01-09T23:10:09.951Z,7.13
2023-01-09T23:12:54.920Z,7.82
2023-01-09T23:15:40.285Z,6.78
2023-01-09T23:18:25.099Z,7.00
2023-01-09T23:21:10.455Z,7.72
2023-01-09T23:26:39.710Z,6.82
2023-01-09T23:29:25.630Z,7.28
2023-01-09T23:32:13.519Z,7.03
2023-01-09T23:34:58.245Z,7.00
2023-01-09T23:37:43.373Z,7.18
2023-01-09T23:40:28.975Z,6.25
2023-01-09T23:43:14.838Z,7.00
2023-01-09T23:45:59.569Z,6.97
2023-01-09T23:48:44.515Z,7.07
2023-01-09T23:51:29.399Z,6.78
2023-01-09T23:54:14.342Z,6.43
2023-01-09T23:59:43.760Z,5.57
